Terminal Aerodrome Forecast
Issued by NWS Mt. Holly, NJ

Home | Current Version | Previous Version | Text Only | Print | Product List | Glossary On
Versions: 1 2 3 4 5 6 7 8 9 10 11 12 13 14 15 16 17 18 19 20 21 22 23 24 25 26 27
515
FTUS41 KPHI 161756
TAFPHL
TAF
KPHL 161756Z 1618/1724 VRB03KT P6SM BKN035
     FM162200 21005KT P6SM BKN035 OVC100
     FM170800 15003KT P6SM OVC025
     FM171300 12005KT 2SM -SHRA BR OVC009
     FM171600 14005KT 2SM -RA BR OVC005=

USA.gov is the U.S. government's official web portal to all federal, state and local government web resources and services.